createdAt,value
2022-10-11T00:00:20.549Z,1023.84
2022-10-11T00:01:21.516Z,1023.85
2022-10-11T00:02:22.351Z,1023.82
2022-10-11T00:03:23.226Z,1023.85
2022-10-11T00:04:24.130Z,1023.84
2022-10-11T00:05:25.003Z,1023.85
2022-10-11T00:06:25.887Z,1023.84
2022-10-11T00:07:26.758Z,1023.84
2022-10-11T00:08:27.641Z,1023.84
2022-10-11T00:09:28.524Z,1023.84
2022-10-11T00:10:29.405Z,1023.83
2022-10-11T00:11:30.296Z,1023.82
2022-10-11T00:12:31.167Z,1023.82
2022-10-11T00:13:32.100Z,1023.84
2022-10-11T00:14:32.965Z,1023.86
2022-10-11T00:15:33.848Z,1023.87
2022-10-11T00:16:34.729Z,1023.89
2022-10-11T00:17:35.612Z,1023.93
2022-10-11T00:18:36.495Z,1023.94
2022-10-11T00:19:37.377Z,1023.96
2022-10-11T00:20:38.260Z,1023.95
2022-10-11T00:21:39.133Z,1023.97
2022-10-11T00:22:40.013Z,1023.96
2022-10-11T00:23:40.902Z,1023.96
2022-10-11T00:24:41.788Z,1023.97
2022-10-11T00:25:42.671Z,1023.99
2022-10-11T00:26:46.826Z,1023.99
2022-10-11T00:27:44.446Z,1023.98
2022-10-11T00:28:45.407Z,1023.97
2022-10-11T00:29:46.230Z,1023.95
2022-10-11T00:30:47.111Z,1023.96
2022-10-11T00:31:47.991Z,1023.95
2022-10-11T00:32:48.868Z,1023.94
2022-10-11T00:33:49.741Z,1023.96
2022-10-11T00:34:50.632Z,1023.96
2022-10-11T00:35:51.515Z,1023.96
2022-10-11T00:36:52.398Z,1023.94
2022-10-11T00:37:53.270Z,1023.94
2022-10-11T00:38:54.155Z,1023.92
2022-10-11T00:39:55.044Z,1023.94
2022-10-11T00:40:55.925Z,1023.95
2022-10-11T00:41:56.826Z,1023.95
2022-10-11T00:42:57.689Z,1023.96
2022-10-11T00:43:58.562Z,1023.97
2022-10-11T00:44:59.453Z,1023.95
2022-10-11T00:46:00.338Z,1023.96
2022-10-11T00:47:01.216Z,1023.98
2022-10-11T00:48:02.090Z,1023.97
2022-10-11T00:49:02.973Z,1023.99
2022-10-11T00:50:03.858Z,1023.97
2022-10-11T00:51:05.138Z,1023.98
2022-10-11T00:52:05.575Z,1023.96
2022-10-11T00:53:06.456Z,1023.97
2022-10-11T00:54:07.339Z,1023.96
2022-10-11T00:55:08.231Z,1024.00
2022-10-11T00:56:09.569Z,1024.06
2022-10-11T00:57:10.075Z,1024.08
2022-10-11T00:58:10.927Z,1024.08
2022-10-11T00:59:11.814Z,1024.09
2022-10-11T01:00:12.695Z,1024.10
2022-10-11T01:01:13.662Z,1024.10
2022-10-11T01:02:14.486Z,1024.10
2022-10-11T01:03:15.367Z,1024.12
2022-10-11T01:04:16.240Z,1024.11
2022-10-11T01:05:32.199Z,1024.12
2022-10-11T01:06:18.898Z,1024.12
2022-10-11T01:07:18.780Z,1024.11
2022-10-11T01:08:19.653Z,1024.11
2022-10-11T01:09:20.535Z,1024.14
2022-10-11T01:10:21.428Z,1024.12
2022-10-11T01:11:22.317Z,1024.11
2022-10-11T01:12:23.214Z,1024.13
2022-10-11T01:13:24.073Z,1024.13
2022-10-11T01:14:24.958Z,1024.13
2022-10-11T01:15:25.847Z,1024.11
2022-10-11T01:16:26.721Z,1024.12
2022-10-11T01:17:27.610Z,1024.10
2022-10-11T01:18:28.488Z,1024.10
2022-10-11T01:19:29.368Z,1024.08
2022-10-11T01:20:30.262Z,1024.06
2022-10-11T01:21:31.140Z,1024.05
2022-10-11T01:22:32.024Z,1024.03
2022-10-11T01:23:32.906Z,1024.01
2022-10-11T01:24:33.789Z,1023.99
2022-10-11T01:25:34.678Z,1024.00
2022-10-11T01:26:35.551Z,1023.97
2022-10-11T01:27:36.457Z,1023.97
2022-10-11T01:28:37.360Z,1023.97
2022-10-11T01:29:38.237Z,1023.99
2022-10-11T01:30:39.120Z,1023.98
2022-10-11T01:31:40.002Z,1023.99
2022-10-11T01:32:40.873Z,1024.00
2022-10-11T01:33:41.764Z,1024.01
2022-10-11T01:34:42.642Z,1024.00
2022-10-11T01:35:43.536Z,1023.99
2022-10-11T01:36:44.417Z,1023.95
2022-10-11T01:37:45.299Z,1023.95
2022-10-11T01:38:46.181Z,1023.96
2022-10-11T01:39:47.061Z,1023.96
2022-10-11T01:40:47.944Z,1023.96
2022-10-11T01:41:48.828Z,1023.94
2022-10-11T01:42:49.730Z,1023.94
2022-10-11T01:43:50.591Z,1023.94
2022-10-11T01:44:51.474Z,1023.95
2022-10-11T01:45:52.367Z,1023.96
2022-10-11T01:46:53.238Z,1023.98
2022-10-11T01:47:54.120Z,1023.98
2022-10-11T01:48:54.991Z,1023.97
2022-10-11T01:49:55.874Z,1023.96
2022-10-11T01:50:56.767Z,1023.96
2022-10-11T01:51:57.647Z,1023.95
2022-10-11T01:52:58.529Z,1023.92
2022-10-11T01:53:59.421Z,1023.90
2022-10-11T01:55:14.831Z,1023.89
2022-10-11T01:56:02.464Z,1023.87
2022-10-11T01:57:02.003Z,1023.86
2022-10-11T01:58:02.912Z,1023.87
2022-10-11T01:59:03.770Z,1023.87
2022-10-11T02:00:04.667Z,1023.86
2022-10-11T02:01:05.665Z,1023.89
2022-10-11T02:02:06.505Z,1023.88
2022-10-11T02:03:07.377Z,1023.88
2022-10-11T02:04:08.274Z,1023.89
2022-10-11T02:05:09.154Z,1023.93
2022-10-11T02:06:10.042Z,1023.95
2022-10-11T02:07:10.918Z,1023.98
2022-10-11T02:08:11.803Z,1024.01
2022-10-11T02:09:12.676Z,1024.05
2022-10-11T02:10:13.561Z,1024.06
2022-10-11T02:11:14.463Z,1024.08
2022-10-11T02:12:15.344Z,1024.09
2022-10-11T02:13:16.248Z,1024.10
2022-10-11T02:14:17.125Z,1024.10
2022-10-11T02:15:18.001Z,1024.10
2022-10-11T02:16:18.888Z,1024.10
2022-10-11T02:17:19.766Z,1024.07
2022-10-11T02:18:20.649Z,1024.07
2022-10-11T02:19:21.532Z,1024.04
2022-10-11T02:20:22.414Z,1024.03
2022-10-11T02:21:23.305Z,1024.01
2022-10-11T02:22:24.192Z,1024.02
2022-10-11T02:23:25.072Z,1024.02
2022-10-11T02:24:25.946Z,1024.02
2022-10-11T02:25:26.826Z,1024.00
2022-10-11T02:26:27.719Z,1023.99
2022-10-11T02:27:28.600Z,1023.93
2022-10-11T02:28:29.579Z,1023.86
2022-10-11T02:29:30.444Z,1023.79
2022-10-11T02:30:31.309Z,1023.83
2022-10-11T02:31:32.215Z,1023.82
2022-10-11T02:32:33.098Z,1023.80
2022-10-11T02:33:33.976Z,1023.80
2022-10-11T02:34:34.861Z,1023.81
2022-10-11T02:35:35.745Z,1023.82
2022-10-11T02:36:36.626Z,1023.80
2022-10-11T02:37:37.508Z,1023.81
2022-10-11T02:38:38.392Z,1023.79
2022-10-11T02:39:39.281Z,1023.78
2022-10-11T02:40:40.148Z,1023.77
2022-10-11T02:41:41.038Z,1023.78
2022-10-11T02:42:41.913Z,1023.77
2022-10-11T02:43:42.832Z,1023.79
2022-10-11T02:44:43.688Z,1023.79
2022-10-11T02:45:44.586Z,1023.80
2022-10-11T02:46:45.466Z,1023.80
2022-10-11T02:47:46.344Z,1023.78
2022-10-11T02:48:47.218Z,1023.78
2022-10-11T02:49:48.098Z,1023.80
2022-10-11T02:50:48.985Z,1023.80
2022-10-11T02:51:49.876Z,1023.81
2022-10-11T02:52:50.749Z,1023.81
2022-10-11T02:53:51.632Z,1023.81
2022-10-11T02:54:52.505Z,1023.81
2022-10-11T02:55:53.388Z,1023.80
2022-10-11T02:56:54.270Z,1023.77
2022-10-11T02:57:55.157Z,1023.76
2022-10-11T02:58:56.045Z,1023.77
2022-10-11T02:59:56.907Z,1023.77
2022-10-11T03:00:57.790Z,1023.78
2022-10-11T03:01:58.734Z,1023.80
2022-10-11T03:02:59.564Z,1023.81
2022-10-11T03:04:00.447Z,1023.83
2022-10-11T03:05:01.329Z,1023.82
2022-10-11T03:06:02.473Z,1023.84
2022-10-11T03:07:03.136Z,1023.85
2022-10-11T03:08:04.017Z,1023.90
2022-10-11T03:09:04.901Z,1023.91
2022-10-11T03:10:05.782Z,1023.94
2022-10-11T03:11:06.666Z,1023.98
2022-10-11T03:12:07.559Z,1023.97
2022-10-11T03:13:08.443Z,1023.97
2022-10-11T03:14:09.343Z,1024.01
2022-10-11T03:15:10.195Z,1023.99
2022-10-11T03:16:11.349Z,1024.05
2022-10-11T03:17:34.924Z,1024.10
2022-10-11T03:18:13.567Z,1024.11
2022-10-11T03:19:16.973Z,1024.14
2022-10-11T03:20:15.208Z,1024.17
2022-10-11T03:21:15.091Z,1024.20
2022-10-11T03:22:15.982Z,1024.19
2022-10-11T03:23:16.859Z,1024.20
2022-10-11T03:24:17.738Z,1024.23
2022-10-11T03:25:18.610Z,1024.21
2022-10-11T03:26:19.492Z,1024.21
2022-10-11T03:27:20.384Z,1024.22
2022-10-11T03:28:21.350Z,1024.22
2022-10-11T03:29:22.209Z,1024.24
2022-10-11T03:30:23.072Z,1024.24
2022-10-11T03:31:23.945Z,1024.24
2022-10-11T03:32:24.835Z,1024.24
2022-10-11T03:33:25.719Z,1024.28
2022-10-11T03:34:26.602Z,1024.27
2022-10-11T03:35:27.483Z,1024.29
2022-10-11T03:36:28.366Z,1024.32
2022-10-11T03:37:29.263Z,1024.35
2022-10-11T03:38:30.155Z,1024.36
2022-10-11T03:39:31.059Z,1024.36
2022-10-11T03:40:31.947Z,1024.36
2022-10-11T03:41:32.829Z,1024.38
2022-10-11T03:42:33.732Z,1024.38
2022-10-11T03:43:34.614Z,1024.35
2022-10-11T03:44:35.515Z,1024.35
2022-10-11T03:45:36.379Z,1024.34
2022-10-11T03:46:37.261Z,1024.36
2022-10-11T03:47:38.025Z,1024.36
2022-10-11T03:48:38.906Z,1024.37
2022-10-11T03:49:43.426Z,1024.36
2022-10-11T03:50:40.642Z,1024.38
2022-10-11T03:51:41.517Z,1024.37
2022-10-11T03:52:42.408Z,1024.35
2022-10-11T03:53:43.282Z,1024.33
2022-10-11T03:54:44.164Z,1024.31
2022-10-11T03:55:45.037Z,1024.33
2022-10-11T03:56:45.918Z,1024.33
2022-10-11T03:57:46.801Z,1024.32
2022-10-11T03:58:47.683Z,1024.34
2022-10-11T03:59:48.574Z,1024.33
2022-10-11T04:00:49.447Z,1024.32
2022-10-11T04:01:50.359Z,1024.32
2022-10-11T04:02:51.220Z,1024.32
2022-10-11T04:03:52.096Z,1024.31
2022-10-11T04:04:52.976Z,1024.31
2022-10-11T04:05:53.849Z,1024.32
2022-10-11T04:06:54.730Z,1024.30
2022-10-11T04:07:55.631Z,1024.30
2022-10-11T04:08:56.512Z,1024.31
2022-10-11T04:09:57.385Z,1024.29
2022-10-11T04:10:58.269Z,1024.28
2022-10-11T04:11:59.160Z,1024.27
2022-10-11T04:13:00.050Z,1024.26
2022-10-11T04:14:00.925Z,1024.29
2022-10-11T04:15:01.824Z,1024.27
2022-10-11T04:16:03.067Z,1024.27
2022-10-11T04:17:03.610Z,1024.28
2022-10-11T04:18:04.492Z,1024.30
2022-10-11T04:19:05.376Z,1024.27
2022-10-11T04:20:06.260Z,1024.28
2022-10-11T04:21:07.143Z,1024.25
2022-10-11T04:22:08.017Z,1024.24
2022-10-11T04:23:08.909Z,1024.25
2022-10-11T04:24:09.789Z,1024.26
2022-10-11T04:25:10.672Z,1024.27
2022-10-11T04:26:11.554Z,1024.28
2022-10-11T04:27:12.435Z,1024.28
2022-10-11T04:28:13.353Z,1024.26
2022-10-11T04:29:14.234Z,1024.25
2022-10-11T04:30:15.140Z,1024.24
2022-10-11T04:31:15.997Z,1024.25
2022-10-11T04:32:16.869Z,1024.23
2022-10-11T04:33:17.762Z,1024.23
2022-10-11T04:34:18.646Z,1024.25
2022-10-11T04:35:19.525Z,1024.23
2022-10-11T04:36:20.410Z,1024.20
2022-10-11T04:37:21.292Z,1024.18
2022-10-11T04:38:22.187Z,1024.19
2022-10-11T04:39:23.069Z,1024.18
2022-10-11T04:40:23.943Z,1024.18
2022-10-11T04:41:24.823Z,1024.16
2022-10-11T04:42:25.695Z,1024.14
2022-10-11T04:43:26.590Z,1024.11
2022-10-11T04:44:27.462Z,1024.11
2022-10-11T04:45:28.364Z,1024.10
2022-10-11T04:46:29.227Z,1024.11
2022-10-11T04:47:30.110Z,1024.12
2022-10-11T04:48:31.005Z,1024.12
2022-10-11T04:49:31.905Z,1024.10
2022-10-11T04:50:32.783Z,1024.10
2022-10-11T04:51:33.661Z,1024.12
2022-10-11T04:52:34.532Z,1024.16
2022-10-11T04:53:35.426Z,1024.16
2022-10-11T04:54:36.310Z,1024.14
2022-10-11T04:55:37.193Z,1024.14
2022-10-11T04:56:38.074Z,1024.17
2022-10-11T04:57:38.957Z,1024.19
2022-10-11T04:58:39.850Z,1024.19
2022-10-11T04:59:40.731Z,1024.19
2022-10-11T05:00:41.623Z,1024.19
2022-10-11T05:01:42.562Z,1024.20
2022-10-11T05:02:43.407Z,1024.19
2022-10-11T05:03:44.299Z,1024.18
2022-10-11T05:04:45.187Z,1024.18
2022-10-11T05:05:46.066Z,1024.19
2022-10-11T05:06:46.939Z,1024.17
2022-10-11T05:07:47.820Z,1024.17
2022-10-11T05:08:48.715Z,1024.17
2022-10-11T05:09:49.597Z,1024.16
2022-10-11T05:10:50.479Z,1024.21
2022-10-11T05:11:51.360Z,1024.23
2022-10-11T05:12:52.245Z,1024.25
2022-10-11T05:13:53.135Z,1024.20
2022-10-11T05:14:53.962Z,1024.20
2022-10-11T05:15:54.854Z,1024.20
2022-10-11T05:16:55.708Z,1024.18
2022-10-11T05:17:56.590Z,1024.17
2022-10-11T05:18:57.474Z,1024.19
2022-10-11T05:19:58.321Z,1024.21
2022-10-11T05:20:59.142Z,1024.20
2022-10-11T05:21:59.970Z,1024.22
2022-10-11T05:23:00.788Z,1024.22
2022-10-11T05:24:01.679Z,1024.19
2022-10-11T05:25:02.568Z,1024.17
2022-10-11T05:26:03.939Z,1024.18
2022-10-11T05:27:03.948Z,1024.17
2022-10-11T05:28:04.853Z,1024.17
2022-10-11T05:29:05.749Z,1024.15
2022-10-11T05:30:06.589Z,1024.12
2022-10-11T05:31:07.428Z,1024.15
2022-10-11T05:32:08.234Z,1024.14
2022-10-11T05:33:09.054Z,1024.13
2022-10-11T05:34:09.945Z,1024.15
2022-10-11T05:35:10.828Z,1024.14
2022-10-11T05:36:11.711Z,1024.13
2022-10-11T05:37:12.542Z,1024.13
2022-10-11T05:38:13.369Z,1024.12
2022-10-11T05:39:14.197Z,1024.14
2022-10-11T05:40:15.025Z,1024.14
2022-10-11T05:41:15.848Z,1024.16
2022-10-11T05:42:16.672Z,1024.14
2022-10-11T05:43:17.492Z,1024.13
2022-10-11T05:44:18.328Z,1024.13
2022-10-11T05:45:19.148Z,1024.12
2022-10-11T05:46:19.996Z,1024.11
2022-10-11T05:47:20.798Z,1024.10
2022-10-11T05:48:21.624Z,1024.09
2022-10-11T05:49:22.462Z,1024.09
2022-10-11T05:50:24.485Z,1024.08
2022-10-11T05:51:23.881Z,1024.09
2022-10-11T05:52:24.710Z,1024.11
2022-10-11T05:53:25.672Z,1024.12
2022-10-11T05:54:26.438Z,1024.13
2022-10-11T05:55:27.258Z,1024.12
2022-10-11T05:56:28.087Z,1024.13
2022-10-11T05:57:28.922Z,1024.16
2022-10-11T05:58:29.751Z,1024.18
2022-10-11T05:59:30.578Z,1024.18
2022-10-11T06:00:31.407Z,1024.20
2022-10-11T06:01:32.390Z,1024.21
2022-10-11T06:02:33.217Z,1024.22
2022-10-11T06:03:34.038Z,1024.20
2022-10-11T06:04:34.874Z,1024.20
2022-10-11T06:05:35.870Z,1024.21
2022-10-11T06:06:36.624Z,1024.23
2022-10-11T06:07:37.444Z,1024.24
2022-10-11T06:08:38.279Z,1024.25
2022-10-11T06:09:39.118Z,1024.26
2022-10-11T06:10:39.955Z,1024.26
2022-10-11T06:11:40.929Z,1024.26
2022-10-11T06:12:41.726Z,1024.28
2022-10-11T06:13:42.556Z,1024.28
2022-10-11T06:14:43.392Z,1024.31
2022-10-11T06:15:44.212Z,1024.32
2022-10-11T06:16:45.058Z,1024.31
2022-10-11T06:17:45.857Z,1024.33
2022-10-11T06:18:46.685Z,1024.37
2022-10-11T06:19:47.523Z,1024.38
2022-10-11T06:20:48.505Z,1024.40
2022-10-11T06:21:49.253Z,1024.40
2022-10-11T06:22:50.087Z,1024.39
2022-10-11T06:23:50.914Z,1024.40
2022-10-11T06:24:51.743Z,1024.41
2022-10-11T06:25:52.563Z,1024.41
2022-10-11T06:26:53.390Z,1024.39
2022-10-11T06:27:54.209Z,1024.40
2022-10-11T06:28:55.162Z,1024.39
2022-10-11T06:29:55.975Z,1024.43
2022-10-11T06:30:56.802Z,1024.43
2022-10-11T06:31:57.641Z,1024.41
2022-10-11T06:33:03.785Z,1024.42
2022-10-11T06:34:00.164Z,1024.40
2022-10-11T06:34:59.993Z,1024.43
2022-10-11T06:36:00.820Z,1024.43
2022-10-11T06:37:01.641Z,1024.45
2022-10-11T06:38:02.478Z,1024.44
2022-10-11T06:39:03.304Z,1024.45
2022-10-11T06:40:04.147Z,1024.47
2022-10-11T06:41:04.960Z,1024.47
2022-10-11T06:42:05.800Z,1024.47
2022-10-11T06:43:06.627Z,1024.46
2022-10-11T06:44:11.907Z,1024.48
2022-10-11T06:45:09.184Z,1024.47
2022-10-11T06:46:09.242Z,1024.47
2022-10-11T06:47:09.550Z,1024.47
2022-10-11T06:48:10.357Z,1024.47
2022-10-11T06:49:11.187Z,1024.48
2022-10-11T06:50:12.017Z,1024.46
2022-10-11T06:51:12.835Z,1024.45
2022-10-11T06:52:13.661Z,1024.46
2022-10-11T06:53:14.482Z,1024.49
2022-10-11T06:54:15.319Z,1024.50
2022-10-11T06:55:16.139Z,1024.51
2022-10-11T06:56:16.966Z,1024.52
2022-10-11T06:57:17.807Z,1024.50
2022-10-11T06:58:18.637Z,1024.53
2022-10-11T06:59:19.465Z,1024.52
2022-10-11T07:00:20.298Z,1024.52
2022-10-11T07:01:21.192Z,1024.55
2022-10-11T07:02:22.021Z,1024.56
2022-10-11T07:03:22.822Z,1024.58
2022-10-11T07:04:23.661Z,1024.60
2022-10-11T07:05:24.495Z,1024.61
2022-10-11T07:06:25.324Z,1024.62
2022-10-11T07:07:26.143Z,1024.62
2022-10-11T07:08:26.971Z,1024.63
2022-10-11T07:09:27.806Z,1024.64
2022-10-11T07:10:28.628Z,1024.64
2022-10-11T07:11:29.453Z,1024.66
2022-10-11T07:12:30.277Z,1024.70
2022-10-11T07:13:31.102Z,1024.71
2022-10-11T07:14:31.933Z,1024.73
2022-10-11T07:15:32.764Z,1024.73
2022-10-11T07:16:33.585Z,1024.73
2022-10-11T07:17:34.422Z,1024.74
2022-10-11T07:18:35.235Z,1024.77
2022-10-11T07:19:36.072Z,1024.80
2022-10-11T07:20:36.900Z,1024.80
2022-10-11T07:21:37.721Z,1024.81
2022-10-11T07:22:38.550Z,1024.82
2022-10-11T07:23:39.373Z,1024.81
2022-10-11T07:24:40.207Z,1024.79
2022-10-11T07:25:41.037Z,1024.77
2022-10-11T07:26:41.875Z,1024.79
2022-10-11T07:27:42.694Z,1024.82
2022-10-11T07:28:43.639Z,1024.82
2022-10-11T07:29:44.422Z,1024.81
2022-10-11T07:30:45.254Z,1024.83
2022-10-11T07:31:46.079Z,1024.83
2022-10-11T07:32:46.926Z,1024.86
2022-10-11T07:33:47.728Z,1024.86
2022-10-11T07:34:48.592Z,1024.87
2022-10-11T07:35:49.408Z,1024.88
2022-10-11T07:36:50.232Z,1024.87
2022-10-11T07:37:51.044Z,1024.88
2022-10-11T07:38:51.877Z,1024.89
2022-10-11T07:39:52.702Z,1024.89
2022-10-11T07:40:53.528Z,1024.89
2022-10-11T07:41:54.356Z,1024.90
2022-10-11T07:42:55.193Z,1024.91
2022-10-11T07:43:56.019Z,1024.89
2022-10-11T07:44:56.866Z,1024.90
2022-10-11T07:45:57.688Z,1024.86
2022-10-11T07:46:58.526Z,1024.89
2022-10-11T07:47:59.385Z,1024.88
2022-10-11T07:49:00.181Z,1024.89
2022-10-11T07:50:01.026Z,1024.85
2022-10-11T07:51:01.841Z,1024.85
2022-10-11T07:52:02.662Z,1024.85
2022-10-11T07:53:03.487Z,1024.85
2022-10-11T07:54:07.185Z,1024.87
2022-10-11T07:55:05.258Z,1024.87
2022-10-11T07:56:06.631Z,1024.85
2022-10-11T07:57:06.609Z,1024.84
2022-10-11T07:58:07.444Z,1024.84
2022-10-11T07:59:08.293Z,1024.83
2022-10-11T08:00:09.089Z,1024.78
2022-10-11T08:01:09.965Z,1024.77
2022-10-11T08:02:10.735Z,1024.81
2022-10-11T08:03:11.586Z,1024.81
2022-10-11T08:04:12.397Z,1024.80
2022-10-11T08:05:13.222Z,1024.78
2022-10-11T08:06:14.044Z,1024.79
2022-10-11T08:07:14.874Z,1024.81
2022-10-11T08:08:15.689Z,1024.79
2022-10-11T08:09:16.527Z,1024.82
2022-10-11T08:10:17.359Z,1024.83
2022-10-11T08:11:18.187Z,1024.83
2022-10-11T08:12:19.015Z,1024.85
2022-10-11T08:13:19.845Z,1024.86
2022-10-11T08:14:20.682Z,1024.84
2022-10-11T08:15:21.512Z,1024.85
2022-10-11T08:16:22.342Z,1024.84
2022-10-11T08:17:23.170Z,1024.82
2022-10-11T08:18:24.012Z,1024.82
2022-10-11T08:19:24.829Z,1024.80
2022-10-11T08:20:25.660Z,1024.79
2022-10-11T08:21:26.492Z,1024.78
2022-10-11T08:22:27.315Z,1024.78
2022-10-11T08:23:28.137Z,1024.79
2022-10-11T08:24:28.971Z,1024.77
2022-10-11T08:25:29.796Z,1024.77
2022-10-11T08:26:30.614Z,1024.78
2022-10-11T08:27:31.443Z,1024.79
2022-10-11T08:28:32.318Z,1024.79
2022-10-11T08:29:33.129Z,1024.81
2022-10-11T08:30:33.960Z,1024.80
2022-10-11T08:31:34.782Z,1024.82
2022-10-11T08:32:35.608Z,1024.80
2022-10-11T08:33:36.544Z,1024.80
2022-10-11T08:34:37.306Z,1024.79
2022-10-11T08:35:38.139Z,1024.81
2022-10-11T08:36:38.977Z,1024.81
2022-10-11T08:37:39.792Z,1024.84
2022-10-11T08:38:40.621Z,1024.83
2022-10-11T08:39:41.452Z,1024.81
2022-10-11T08:40:42.284Z,1024.84
2022-10-11T08:41:43.124Z,1024.86
2022-10-11T08:42:43.937Z,1024.85
2022-10-11T08:43:44.759Z,1024.86
2022-10-11T08:45:09.610Z,1024.84
2022-10-11T08:45:47.305Z,1024.86
2022-10-11T08:46:47.125Z,1024.86
2022-10-11T08:47:47.973Z,1024.87
2022-10-11T08:48:48.828Z,1024.87
2022-10-11T08:49:49.636Z,1024.87
2022-10-11T08:50:50.454Z,1024.86
2022-10-11T08:51:51.282Z,1024.86
2022-10-11T08:52:52.104Z,1024.86
2022-10-11T08:53:52.946Z,1024.86
2022-10-11T08:54:53.462Z,1024.85
2022-10-11T08:55:54.283Z,1024.83
2022-10-11T08:56:55.112Z,1024.82
2022-10-11T08:57:55.940Z,1024.80
2022-10-11T08:58:56.828Z,1024.80
2022-10-11T08:59:57.609Z,1024.79
2022-10-11T09:00:58.440Z,1024.78
2022-10-11T09:01:59.396Z,1024.79
2022-10-11T09:03:09.006Z,1024.76
2022-10-11T09:04:01.926Z,1024.78
2022-10-11T09:05:01.723Z,1024.78
2022-10-11T09:06:02.923Z,1024.77
2022-10-11T09:07:05.021Z,1024.76
2022-10-11T09:08:04.002Z,1024.76
2022-10-11T09:09:04.840Z,1024.76
2022-10-11T09:10:05.849Z,1024.74
2022-10-11T09:11:06.599Z,1024.75
2022-10-11T09:12:07.425Z,1024.74
2022-10-11T09:13:08.256Z,1024.74
2022-10-11T09:14:09.095Z,1024.75
2022-10-11T09:15:09.914Z,1024.74
2022-10-11T09:16:10.743Z,1024.73
2022-10-11T09:17:11.563Z,1024.72
2022-10-11T09:18:12.392Z,1024.71
2022-10-11T09:19:13.252Z,1024.70
2022-10-11T09:20:14.062Z,1024.69
2022-10-11T09:21:14.881Z,1024.68
2022-10-11T09:22:15.709Z,1024.67
2022-10-11T09:23:16.541Z,1024.67
2022-10-11T09:24:17.388Z,1024.66
2022-10-11T09:25:18.221Z,1024.68
2022-10-11T09:26:19.048Z,1024.65
2022-10-11T09:27:25.931Z,1024.64
2022-10-11T09:28:21.661Z,1024.63
2022-10-11T09:29:21.474Z,1024.65
2022-10-11T09:30:22.304Z,1024.60
2022-10-11T09:31:23.135Z,1024.61
2022-10-11T09:32:23.964Z,1024.59
2022-10-11T09:33:24.785Z,1024.58
2022-10-11T09:34:25.640Z,1024.58
2022-10-11T09:35:26.445Z,1024.59
2022-10-11T09:36:27.269Z,1024.58
2022-10-11T09:37:28.098Z,1024.57
2022-10-11T09:38:28.927Z,1024.55
2022-10-11T09:39:29.766Z,1024.55
2022-10-11T09:40:30.595Z,1024.54
2022-10-11T09:41:31.415Z,1024.55
2022-10-11T09:42:32.244Z,1024.53
2022-10-11T09:43:33.091Z,1024.53
2022-10-11T09:44:33.929Z,1024.54
2022-10-11T09:45:34.757Z,1024.53
2022-10-11T09:46:35.586Z,1024.53
2022-10-11T09:47:36.408Z,1024.51
2022-10-11T09:48:37.235Z,1024.52
2022-10-11T09:49:38.081Z,1024.51
2022-10-11T09:50:38.891Z,1024.51
2022-10-11T09:51:39.742Z,1024.52
2022-10-11T09:52:40.578Z,1024.51
2022-10-11T09:53:41.405Z,1024.50
2022-10-11T09:54:42.240Z,1024.51
2022-10-11T09:55:43.068Z,1024.52
2022-10-11T09:56:43.900Z,1024.54
2022-10-11T09:57:44.738Z,1024.52
2022-10-11T09:58:45.550Z,1024.54
2022-10-11T09:59:46.604Z,1024.55
2022-10-11T10:00:47.415Z,1024.56
2022-10-11T10:01:48.274Z,1024.56
2022-10-11T10:02:49.155Z,1024.56
2022-10-11T10:03:49.941Z,1024.57
2022-10-11T10:04:50.807Z,1024.57
2022-10-11T10:05:51.616Z,1024.58
2022-10-11T10:06:52.487Z,1024.57
2022-10-11T10:07:53.292Z,1024.58
2022-10-11T10:08:54.118Z,1024.54
2022-10-11T10:09:54.950Z,1024.55
2022-10-11T10:10:59.236Z,1024.57
2022-10-11T10:11:56.501Z,1024.58
2022-10-11T10:12:57.295Z,1024.56
2022-10-11T10:13:58.124Z,1024.57
2022-10-11T10:14:58.965Z,1024.58
2022-10-11T10:15:59.792Z,1024.58
2022-10-11T10:17:00.625Z,1024.56
2022-10-11T10:18:01.516Z,1024.55
2022-10-11T10:19:02.294Z,1024.54
2022-10-11T10:20:03.152Z,1024.51
2022-10-11T10:21:03.976Z,1024.49
2022-10-11T10:22:04.801Z,1024.49
2022-10-11T10:23:05.633Z,1024.48
2022-10-11T10:24:06.510Z,1024.49
2022-10-11T10:25:07.306Z,1024.48
2022-10-11T10:26:08.770Z,1024.48
2022-10-11T10:27:08.775Z,1024.49
2022-10-11T10:28:09.699Z,1024.46
2022-10-11T10:29:10.473Z,1024.47
2022-10-11T10:30:11.361Z,1024.44
2022-10-11T10:31:12.147Z,1024.45
2022-10-11T10:32:14.617Z,1024.45
2022-10-11T10:33:13.579Z,1024.46
2022-10-11T10:34:14.408Z,1024.47
2022-10-11T10:35:15.270Z,1024.47
2022-10-11T10:36:16.153Z,1024.45
2022-10-11T10:37:16.948Z,1024.46
2022-10-11T10:38:19.120Z,1024.46
2022-10-11T10:39:18.512Z,1024.48
2022-10-11T10:40:19.349Z,1024.46
2022-10-11T10:41:20.175Z,1024.47
2022-10-11T10:42:21.097Z,1024.46
2022-10-11T10:43:21.878Z,1024.44
2022-10-11T10:44:22.711Z,1024.43
2022-10-11T10:45:23.551Z,1024.42
2022-10-11T10:46:24.380Z,1024.41
2022-10-11T10:47:25.250Z,1024.41
2022-10-11T10:48:26.045Z,1024.41
2022-10-11T10:49:53.695Z,1024.40
2022-10-11T10:50:28.621Z,1024.40
2022-10-11T10:51:28.430Z,1024.39
2022-10-11T10:52:29.259Z,1024.37
2022-10-11T10:53:30.164Z,1024.37
2022-10-11T10:54:30.941Z,1024.36
2022-10-11T10:55:31.784Z,1024.35
2022-10-11T10:56:32.610Z,1024.33
2022-10-11T10:57:33.439Z,1024.32
2022-10-11T10:58:34.279Z,1024.29
2022-10-11T10:59:35.101Z,1024.28
2022-10-11T11:00:35.936Z,1024.25
2022-10-11T11:01:36.826Z,1024.25
2022-10-11T11:02:41.647Z,1024.25
2022-10-11T11:03:38.115Z,1024.25
2022-10-11T11:04:38.943Z,1024.23
2022-10-11T11:05:39.803Z,1024.22
2022-10-11T11:06:40.616Z,1024.23
2022-10-11T11:07:41.457Z,1024.23
2022-10-11T11:08:42.274Z,1024.23
2022-10-11T11:09:43.117Z,1024.24
2022-10-11T11:10:43.948Z,1024.25
2022-10-11T11:11:44.776Z,1024.24
2022-10-11T11:12:45.617Z,1024.23
2022-10-11T11:13:46.439Z,1024.23
2022-10-11T11:14:47.267Z,1024.20
2022-10-11T11:15:48.097Z,1024.20
2022-10-11T11:16:48.930Z,1024.22
2022-10-11T11:17:49.753Z,1024.22
2022-10-11T11:18:50.579Z,1024.25
2022-10-11T11:19:51.399Z,1024.23
2022-10-11T11:20:52.281Z,1024.22
2022-10-11T11:21:53.083Z,1024.23
2022-10-11T11:22:53.910Z,1024.21
2022-10-11T11:23:54.737Z,1024.22
2022-10-11T11:24:55.563Z,1024.18
2022-10-11T11:25:56.392Z,1024.20
2022-10-11T11:26:57.220Z,1024.18
2022-10-11T11:27:58.054Z,1024.16
2022-10-11T11:28:58.889Z,1024.17
2022-10-11T11:29:59.715Z,1024.16
2022-10-11T11:31:00.548Z,1024.11
2022-10-11T11:32:01.365Z,1024.11
2022-10-11T11:33:02.194Z,1024.07
2022-10-11T11:34:03.014Z,1024.06
2022-10-11T11:35:03.852Z,1024.06
2022-10-11T11:36:05.062Z,1024.04
2022-10-11T11:37:05.562Z,1024.01
2022-10-11T11:38:06.745Z,1024.00
2022-10-11T11:39:07.023Z,1023.98
2022-10-11T11:40:07.843Z,1023.98
2022-10-11T11:41:08.953Z,1023.96
2022-10-11T11:42:09.432Z,1023.95
2022-10-11T11:43:10.251Z,1023.93
2022-10-11T11:44:11.073Z,1023.92
2022-10-11T11:45:11.946Z,1023.91
2022-10-11T11:46:12.766Z,1023.91
2022-10-11T11:47:13.594Z,1023.92
2022-10-11T11:48:14.421Z,1023.92
2022-10-11T11:49:15.247Z,1023.91
2022-10-11T11:50:16.076Z,1023.88
2022-10-11T11:51:16.923Z,1023.87
2022-10-11T11:52:17.727Z,1023.86
2022-10-11T11:53:18.560Z,1023.83
2022-10-11T11:54:19.401Z,1023.84
2022-10-11T11:55:20.256Z,1023.82
2022-10-11T11:56:21.094Z,1023.83
2022-10-11T11:57:21.923Z,1023.78
2022-10-11T11:58:22.761Z,1023.79
2022-10-11T11:59:23.605Z,1023.79
2022-10-11T12:00:24.444Z,1023.75
2022-10-11T12:01:28.931Z,1023.77
2022-10-11T12:02:27.138Z,1023.78
2022-10-11T12:03:26.964Z,1023.78
2022-10-11T12:04:27.783Z,1023.79
2022-10-11T12:05:28.623Z,1023.77
2022-10-11T12:06:29.464Z,1023.79
2022-10-11T12:07:30.277Z,1023.76
2022-10-11T12:08:31.099Z,1023.74
2022-10-11T12:09:31.930Z,1023.73
2022-10-11T12:10:32.762Z,1023.74
2022-10-11T12:11:35.556Z,1023.74
2022-10-11T12:12:34.371Z,1023.71
2022-10-11T12:13:35.205Z,1023.71
2022-10-11T12:14:36.032Z,1023.68
2022-10-11T12:15:36.872Z,1023.66